Time;durP1;ratioP1;P1;durP2;ratioP2;P2;SDS_P1;SDS_P2;PMS_P1;PMS_P2;Temp;Humidity;BMP_temperature;BMP_pressure;BME280_temperature;BME280_humidity;BME280_pressure;Samples;Min_cycle;Max_cycle;Signal;HPM_P1;HPM_P2
2022/03/13 00:00:57;;;;;;;10.40;8.00;;;;;;;-0.33;81.02;101127.28;1680801;83;21552;-64
2022/03/13 00:03:24;;;;;;;13.23;10.13;;;;;;;-0.30;80.80;101131.03;1669482;84;21062;-64
2022/03/13 00:05:54;;;;;;;17.17;11.43;;;;;;;-0.32;80.45;101135.53;1684699;84;22194;-64
2022/03/13 00:08:28;;;;;;;14.07;9.03;;;;;;;-0.34;80.60;101136.55;1677935;84;21040;-64
2022/03/13 00:11:08;;;;;;;13.07;9.43;;;;;;;-0.34;80.65;101134.79;1688237;84;22289;-71
2022/03/13 00:13:44;;;;;;;12.13;9.57;;;;;;;-0.34;80.45;101128.24;1654374;86;21039;-64
2022/03/13 00:16:12;;;;;;;13.72;10.50;;;;;;;-0.38;80.79;101140.30;1678472;84;21057;-65
2022/03/13 00:18:46;;;;;;;14.40;9.20;;;;;;;-0.41;80.71;101141.35;1645207;85;21058;-64
2022/03/13 00:21:11;;;;;;;15.03;9.53;;;;;;;-0.40;80.76;101138.64;1682092;84;21098;-70
2022/03/13 00:23:39;;;;;;;17.47;10.40;;;;;;;-0.41;80.75;101138.73;1684360;84;21096;-65
2022/03/13 00:26:06;;;;;;;13.57;8.70;;;;;;;-0.40;80.59;101142.57;1685460;84;21628;-66
2022/03/13 00:28:37;;;;;;;14.97;10.37;;;;;;;-0.44;80.71;101139.75;1685341;84;21549;-68
2022/03/13 00:31:05;;;;;;;12.53;9.90;;;;;;;-0.49;80.98;101140.53;1682761;84;21172;-66
2022/03/13 00:33:32;;;;;;;12.33;9.37;;;;;;;-0.53;80.98;101138.19;1645694;84;21132;-65
2022/03/13 00:36:00;;;;;;;18.43;10.77;;;;;;;-0.57;81.61;101144.56;1683960;84;21054;-64
2022/03/13 00:38:26;;;;;;;14.00;9.47;;;;;;;-0.57;81.49;101144.56;1684233;84;21125;-65
2022/03/13 00:40:56;;;;;;;15.00;11.73;;;;;;;-0.54;81.77;101143.06;1684291;84;21071;-66
2022/03/13 00:43:25;;;;;;;14.70;10.53;;;;;;;-0.57;81.49;101137.53;1684270;84;21041;-64
2022/03/13 00:45:52;;;;;;;16.33;11.50;;;;;;;-0.55;81.50;101143.99;1661575;84;21085;-69
2022/03/13 00:48:20;;;;;;;13.33;10.27;;;;;;;-0.54;81.55;101145.69;1656632;85;21041;-64
2022/03/13 00:50:47;;;;;;;12.10;8.50;;;;;;;-0.49;81.50;101141.84;1652482;85;21156;-66
2022/03/13 00:53:14;;;;;;;;;;;;;;;-0.48;81.42;101157.08;1655242;85;21363;-64
2022/03/13 00:55:40;;;;;;;12.70;9.87;;;;;;;-0.48;80.96;101151.84;1651913;84;20169;-66
2022/03/13 00:58:09;;;;;;;12.50;9.80;;;;;;;-0.51;81.25;101147.65;1665231;84;21140;-65
2022/03/13 01:00:37;;;;;;;15.63;11.27;;;;;;;-0.52;81.10;101150.36;1667736;84;21063;-64
2022/03/13 01:03:03;;;;;;;13.50;10.13;;;;;;;-0.52;81.43;101154.29;1661001;84;21548;-64
2022/03/13 01:05:31;;;;;;;16.50;11.17;;;;;;;-0.55;81.15;101150.54;1657763;84;21587;-68
2022/03/13 01:07:59;;;;;;;17.10;10.70;;;;;;;-0.57;81.36;101149.80;1662977;85;21056;-67
2022/03/13 01:10:29;;;;;;;12.53;8.37;;;;;;;-0.57;81.57;101145.87;1665103;84;21022;-66
2022/03/13 01:12:56;;;;;;;16.17;10.10;;;;;;;-0.53;81.65;101149.97;1667985;84;21066;-65
2022/03/13 01:15:22;;;;;;;15.90;10.40;;;;;;;-0.53;81.20;101150.80;1667888;84;21144;-65
2022/03/13 01:17:51;;;;;;;13.80;10.23;;;;;;;-0.53;81.39;101159.97;1667224;84;21065;-72
2022/03/13 01:20:21;;;;;;;18.03;11.23;;;;;;;-0.56;81.37;101156.73;1668014;84;21104;-66
2022/03/13 01:22:49;;;;;;;14.50;9.33;;;;;;;-0.62;81.62;101156.64;1666643;84;21092;-66
2022/03/13 01:25:16;;;;;;;11.90;9.03;;;;;;;-0.63;81.99;101162.80;1667006;84;21071;-68
2022/03/13 01:27:47;;;;;;;16.10;10.63;;;;;;;-0.60;81.84;101158.22;1661199;84;21145;-66
2022/03/13 01:30:14;;;;;;;14.27;9.67;;;;;;;-0.64;81.79;101149.33;1667153;84;21072;-66
2022/03/13 01:32:48;;;;;;;15.60;8.97;;;;;;;-0.66;81.75;101162.54;1649331;84;21038;-64
2022/03/13 01:35:20;;;;;;;16.30;10.80;;;;;;;-0.64;81.90;101161.11;1683665;84;21042;-66
2022/03/13 01:37:49;;;;;;;14.97;11.23;;;;;;;-0.60;81.87;101158.70;1669333;84;21520;-65
2022/03/13 01:40:23;;;;;;;13.93;10.00;;;;;;;-0.56;81.98;101164.11;1667590;84;21066;-65
2022/03/13 01:42:51;;;;;;;16.47;10.60;;;;;;;-0.53;81.74;101164.38;1666920;84;21141;-65
2022/03/13 01:45:20;;;;;;;20.23;11.33;;;;;;;-0.51;81.48;101161.19;1650276;84;21085;-68
2022/03/13 01:47:48;;;;;;;14.90;10.40;;;;;;;-0.46;81.43;101163.05;1655320;85;21136;-65
2022/03/13 01:50:18;;;;;;;14.80;10.20;;;;;;;-0.41;81.31;101168.38;1643539;85;21097;-66
2022/03/13 01:52:48;;;;;;;14.17;10.60;;;;;;;-0.32;80.90;101170.03;1663828;86;21341;-66
2022/03/13 01:55:16;;;;;;;15.27;10.43;;;;;;;-0.40;80.87;101170.08;1657254;82;21167;-68
2022/03/13 01:57:45;;;;;;;13.20;9.53;;;;;;;-0.44;80.77;101171.18;1702008;83;21063;-65
2022/03/13 02:00:13;;;;;;;16.10;10.77;;;;;;;-0.53;81.23;101172.23;1690468;83;21000;-67
2022/03/13 02:02:46;;;;;;;17.73;11.47;;;;;;;-0.54;81.32;101170.56;1674507;85;21043;-65
2022/03/13 02:05:35;;;;;;;13.83;9.33;;;;;;;-0.50;81.54;101175.98;1680203;85;21096;-70
2022/03/13 02:08:22;;;;;;;10.23;7.40;;;;;;;-0.44;81.35;101178.20;1681800;85;21048;-66
2022/03/13 02:10:51;;;;;;;22.43;10.63;;;;;;;-0.41;81.01;101178.02;1682881;85;21067;-68
2022/03/13 02:13:21;;;;;;;13.77;9.80;;;;;;;-0.41;80.77;101178.02;1683101;84;21539;-64
2022/03/13 02:15:49;;;;;;;12.90;10.13;;;;;;;-0.42;80.80;101185.50;1681311;85;21135;-65
2022/03/13 02:18:16;;;;;;;14.13;10.20;;;;;;;-0.43;80.65;101189.06;1670391;84;21088;-65
2022/03/13 02:20:46;;;;;;;15.23;9.80;;;;;;;-0.43;80.57;101187.76;1665908;85;21663;-65
2022/03/13 02:23:21;;;;;;;17.00;12.03;;;;;;;-0.46;80.74;101191.88;1652887;85;21105;-67
2022/03/13 02:25:59;;;;;;;14.83;10.53;;;;;;;-0.48;80.60;101188.51;1665045;85;21061;-65
2022/03/13 02:28:30;;;;;;;18.65;10.50;;;;;;;-0.49;80.74;101194.67;1666381;85;21537;-65
2022/03/13 02:31:02;;;;;;;13.63;10.23;;;;;;;-0.46;80.37;101191.88;1665494;85;21696;-64
2022/03/13 02:33:32;;;;;;;14.73;9.77;;;;;;;-0.42;80.18;101190.73;1660720;84;21038;-65
2022/03/13 02:36:02;;;;;;;11.33;8.57;;;;;;;-0.39;80.02;101194.48;1627399;86;21471;-70
2022/03/13 02:38:32;;;;;;;12.30;9.60;;;;;;;-0.35;79.71;101199.89;1650449;85;21139;-65
2022/03/13 02:40:59;;;;;;;;;;;;;;;-0.35;79.21;101202.52;1641052;86;21177;-70
2022/03/13 02:43:26;;;;;;;14.93;8.60;;;;;;;-0.39;79.11;101207.58;1597664;88;20154;-64
2022/03/13 02:45:54;;;;;;;12.37;9.53;;;;;;;-0.44;78.99;101209.64;1663332;84;21171;-68
2022/03/13 02:48:21;;;;;;;11.20;8.80;;;;;;;-0.46;79.00;101204.48;1664719;84;21123;-66
2022/03/13 02:50:49;;;;;;;11.03;7.97;;;;;;;-0.46;79.07;101215.44;1666137;84;21068;-65
2022/03/13 02:53:17;;;;;;;12.83;9.30;;;;;;;-0.45;78.87;101215.83;1665036;84;21145;-68
2022/03/13 02:55:46;;;;;;;14.60;9.47;;;;;;;-0.50;78.87;101213.48;1666105;84;20992;-68
2022/03/13 02:58:13;;;;;;;13.33;9.80;;;;;;;-0.52;78.86;101219.28;1666561;84;21076;-65
2022/03/13 03:00:47;;;;;;;;;;;;;;;-0.52;79.00;101213.21;1669834;84;21360;-69
2022/03/13 03:03:21;;;;;;;13.73;8.93;;;;;;;-0.49;78.78;101219.55;1680071;84;20107;-65
2022/03/13 03:05:49;;;;;;;9.93;8.07;;;;;;;-0.50;78.82;101235.74;1671986;84;21696;-64
2022/03/13 03:08:18;;;;;;;11.27;8.30;;;;;;;-0.50;78.69;101230.98;1668111;84;21363;-68
2022/03/13 03:10:45;;;;;;;11.57;7.63;;;;;;;-0.45;78.47;101232.86;1666599;85;21067;-65
2022/03/13 03:13:15;;;;;;;13.83;8.93;;;;;;;-0.45;78.72;101232.38;1666220;84;21051;-66
2022/03/13 03:15:43;;;;;;;13.63;9.50;;;;;;;-0.46;78.74;101236.40;1665432;85;21066;-66
2022/03/13 03:18:10;;;;;;;12.17;8.53;;;;;;;-0.48;79.03;101240.41;1665484;84;21082;-64
2022/03/13 03:20:39;;;;;;;12.63;9.03;;;;;;;-0.51;79.21;101248.48;1666129;85;21134;-69
2022/03/13 03:23:06;;;;;;;13.10;9.57;;;;;;;-0.90;79.31;101181.07;1655642;84;21643;-65
2022/03/13 03:25:35;;;;;;;11.77;8.27;;;;;;;-0.52;79.49;101236.78;1638356;86;21107;-65
2022/03/13 03:28:04;;;;;;;14.37;9.87;;;;;;;-0.47;79.30;101250.41;1638380;86;21023;-65
2022/03/13 03:30:33;;;;;;;11.17;9.40;;;;;;;-0.46;79.18;101243.78;1639145;86;21063;-64
2022/03/13 03:33:04;;;;;;;12.23;9.50;;;;;;;-0.42;79.13;101245.74;1638442;86;21098;-71
2022/03/13 03:35:31;;;;;;;15.60;10.20;;;;;;;-0.38;79.07;101252.95;1638707;86;21668;-65
2022/03/13 03:37:58;;;;;;;9.97;8.60;;;;;;;-0.34;78.82;101250.05;1638051;86;21161;-66
2022/03/13 03:40:29;;;;;;;14.35;9.63;;;;;;;-0.32;78.60;101257.34;1638622;86;21142;-65
2022/03/13 03:43:00;;;;;;;12.50;9.07;;;;;;;-0.30;78.51;101258.54;1639682;86;21641;-67
2022/03/13 03:45:27;;;;;;;12.60;8.80;;;;;;;-0.31;78.54;101256.39;1638741;86;21002;-63
2022/03/13 03:47:54;;;;;;;12.83;8.67;;;;;;;-0.35;78.55;101264.08;1639722;86;21141;-64
2022/03/13 03:50:21;;;;;;;11.30;9.43;;;;;;;-0.35;78.52;101256.70;1639229;86;22340;-69
2022/03/13 03:52:55;;;;;;;13.17;9.13;;;;;;;-0.37;78.59;101262.50;1638820;86;21123;-64
2022/03/13 03:55:17;;;;;;;15.70;9.97;;;;;;;-0.30;78.50;101261.16;1633788;86;21086;-75
2022/03/13 03:57:45;;;;;;;9.18;8.10;;;;;;;-0.35;78.39;101265.86;1639520;86;21261;-66
2022/03/13 04:00:14;;;;;;;11.23;8.93;;;;;;;-0.38;78.45;101266.88;1640699;86;21137;-65
2022/03/13 04:02:43;;;;;;;14.10;8.70;;;;;;;-0.43;78.47;101267.17;1666710;85;21081;-66
2022/03/13 04:05:11;;;;;;;14.07;9.67;;;;;;;-0.45;78.69;101272.14;1665825;85;21384;-65
2022/03/13 04:07:38;;;;;;;15.20;10.40;;;;;;;-0.49;78.92;101271.93;1650043;87;21542;-67
2022/03/13 04:10:07;;;;;;;12.37;9.27;;;;;;;-0.50;79.00;101270.27;1666581;85;21185;-64
2022/03/13 04:12:36;;;;;;;17.10;10.93;;;;;;;-0.49;79.17;101285.89;1666526;85;21162;-64
2022/03/13 04:15:05;;;;;;;12.77;9.97;;;;;;;-0.47;78.89;101284.47;1666558;85;21188;-66
2022/03/13 04:17:34;;;;;;;15.00;10.10;;;;;;;-0.45;78.74;101278.69;1666876;85;21088;-65
2022/03/13 04:20:03;;;;;;;17.03;10.07;;;;;;;-0.43;78.66;101284.20;1666639;85;21040;-65
2022/03/13 04:22:31;;;;;;;16.63;9.93;;;;;;;-0.42;78.46;101285.86;1660917;85;21651;-68
2022/03/13 04:24:58;;;;;;;17.00;11.65;;;;;;;-0.40;78.44;101286.64;1638227;87;21078;-67
2022/03/13 04:27:27;;;;;;;17.20;10.87;;;;;;;-0.43;78.39;101290.75;1637992;87;21110;-65
2022/03/13 04:29:55;;;;;;;16.70;10.40;;;;;;;-0.44;78.50;101289.05;1637825;87;21617;-66
2022/03/13 04:32:23;;;;;;;21.27;11.73;;;;;;;-0.48;78.54;101298.03;1638063;87;21236;-67
2022/03/13 04:34:50;;;;;;;18.07;11.60;;;;;;;-0.49;78.49;101296.38;1637661;87;21099;-65
2022/03/13 04:37:18;;;;;;;;;;;;;;;-0.50;78.41;101299.08;1656795;87;21327;-65
2022/03/13 04:39:50;;;;;;;17.20;9.57;;;;;;;-0.50;78.39;101301.70;1654392;86;20169;-66
2022/03/13 04:42:15;;;;;;;14.30;9.70;;;;;;;-0.59;78.15;101312.25;1654296;87;21090;-64
2022/03/13 04:44:42;;;;;;;;;;;;;;;-0.58;78.01;101308.70;1659402;86;21058;-65
2022/03/13 04:47:09;;;;;;;15.67;9.07;;;;;;;-0.55;78.07;101319.45;1669740;86;20128;-65
2022/03/13 04:49:35;;;;;;;13.45;9.35;;;;;;;-0.59;78.10;101323.55;1669793;86;21530;-66
2022/03/13 04:52:04;;;;;;;12.63;9.27;;;;;;;-0.54;77.84;101328.53;1669471;86;21161;-65
2022/03/13 04:54:31;;;;;;;13.00;8.80;;;;;;;-0.55;77.56;101321.59;1669696;86;21101;-65
2022/03/13 04:56:58;;;;;;;14.47;10.20;;;;;;;-0.50;77.47;101330.50;1682848;84;21067;-65
2022/03/13 04:59:26;;;;;;;13.33;9.63;;;;;;;-0.47;77.30;101323.31;1685916;84;21182;-69
2022/03/13 05:01:52;;;;;;;;;;;;;;;-0.41;77.23;101330.79;1688747;84;21056;-63
2022/03/13 05:04:20;;;;;;;12.95;7.90;;;;;;;-0.35;77.07;101333.50;1686135;85;20468;-70
2022/03/13 05:06:48;;;;;;;12.13;8.40;;;;;;;-0.32;76.84;101347.73;1685917;85;21063;-66
2022/03/13 05:09:16;;;;;;;12.00;9.03;;;;;;;-0.31;76.04;101352.02;1685952;84;20987;-64
2022/03/13 05:11:45;;;;;;;12.30;8.90;;;;;;;-0.34;75.93;101345.68;1685846;84;21526;-65
2022/03/13 05:14:12;;;;;;;16.40;9.37;;;;;;;-0.33;75.78;101344.73;1685979;84;21055;-68
2022/03/13 05:16:39;;;;;;;12.90;8.78;;;;;;;-0.31;75.76;101357.73;1686210;85;21028;-65
2022/03/13 05:19:06;;;;;;;12.63;8.28;;;;;;;-0.30;75.58;101362.89;1673089;85;21160;-65
2022/03/13 05:21:36;;;;;;;14.27;8.37;;;;;;;-0.31;75.45;101357.27;1680079;85;21090;-66
2022/03/13 05:24:04;;;;;;;14.43;9.03;;;;;;;-0.32;75.44;101362.14;1685871;84;21428;-68
2022/03/13 05:26:33;;;;;;;13.27;8.17;;;;;;;-0.31;75.43;101369.53;1686199;84;21178;-67
2022/03/13 05:29:00;;;;;;;12.73;8.53;;;;;;;-0.30;75.33;101368.58;1685619;84;21213;-64
2022/03/13 05:31:29;;;;;;;12.83;8.70;;;;;;;-0.29;75.30;101380.76;1685341;84;21864;-69
2022/03/13 05:33:58;;;;;;;9.07;7.37;;;;;;;-0.31;74.80;101378.70;1668174;84;21082;-66
2022/03/13 05:36:25;;;;;;;9.83;7.87;;;;;;;-0.30;74.93;101385.16;1685255;85;21094;-65
2022/03/13 05:38:53;;;;;;;10.90;8.30;;;;;;;-0.28;74.95;101387.22;1686033;85;21653;-66
2022/03/13 05:41:22;;;;;;;11.53;7.50;;;;;;;-0.26;75.04;101389.75;1686054;85;21071;-65
2022/03/13 05:43:51;;;;;;;11.07;7.87;;;;;;;-0.27;75.04;101391.98;1685837;85;22267;-64
2022/03/13 05:46:19;;;;;;;13.33;7.87;;;;;;;-0.29;74.96;101405.65;1685845;84;21095;-65
2022/03/13 05:48:45;;;;;;;8.03;7.20;;;;;;;-0.28;74.51;101413.42;1685878;84;21031;-66
2022/03/13 05:51:12;;;;;;;8.53;7.05;;;;;;;-0.32;73.81;101407.13;1685947;84;21538;-64
2022/03/13 05:53:39;;;;;;;;;;;;;;;-0.33;73.89;101406.30;1688573;84;21071;-64
2022/03/13 05:56:06;;;;;;;10.07;7.10;;;;;;;-0.35;73.97;101421.27;1686075;84;20159;-66
2022/03/13 05:58:35;;;;;;;9.20;6.47;;;;;;;-0.40;74.16;101424.62;1685819;85;21577;-66
2022/03/13 06:01:04;;;;;;;8.63;7.20;;;;;;;-0.39;74.25;101419.77;1685985;84;21061;-68
2022/03/13 06:03:30;;;;;;;10.77;7.43;;;;;;;-0.38;74.44;101422.75;1685821;85;21634;-66
2022/03/13 06:06:01;;;;;;;9.47;7.47;;;;;;;-0.37;74.41;101434.92;1686049;85;21055;-66
2022/03/13 06:08:30;;;;;;;11.70;7.33;;;;;;;-0.37;74.07;101445.41;1685918;85;21075;-65
2022/03/13 06:11:00;;;;;;;10.60;7.27;;;;;;;-0.36;74.15;101440.52;1685796;85;21610;-67
2022/03/13 06:13:28;;;;;;;10.87;8.07;;;;;;;-0.36;73.75;101442.31;1686039;84;21062;-66
2022/03/13 06:15:57;;;;;;;10.23;7.17;;;;;;;-0.28;73.10;101454.03;1686039;85;21182;-72
2022/03/13 06:18:31;;;;;;;9.23;7.43;;;;;;;-0.27;72.86;101447.84;1686245;84;21058;-69
2022/03/13 06:20:59;;;;;;;10.10;8.60;;;;;;;-0.33;72.82;101447.37;1686206;84;21136;-65
2022/03/13 06:23:28;;;;;;;12.77;7.93;;;;;;;-0.22;72.73;101454.14;1661601;84;21149;-70
2022/03/13 06:26:00;;;;;;;9.67;7.37;;;;;;;-0.23;72.87;101458.55;1686131;84;21130;-64
2022/03/13 06:28:24;;;;;;;8.23;6.50;;;;;;;-0.21;72.93;101459.30;1686258;84;21046;-69
2022/03/13 06:30:55;;;;;;;11.03;7.97;;;;;;;-0.21;72.85;101465.84;1685972;84;21127;-69
2022/03/13 06:33:21;;;;;;;10.87;8.10;;;;;;;-0.16;72.46;101472.11;1670333;85;21449;-67
2022/03/13 06:35:47;;;;;;;11.53;7.53;;;;;;;-0.15;72.08;101479.49;1642981;87;21065;-65
2022/03/13 06:38:15;;;;;;;12.15;8.13;;;;;;;-0.15;71.85;101478.19;1650778;86;21069;-65
2022/03/13 06:40:42;;;;;;;12.30;8.17;;;;;;;-0.18;71.64;101481.84;1650144;86;21652;-65
2022/03/13 06:43:09;;;;;;;11.67;8.17;;;;;;;-0.23;71.67;101475.58;1650463;86;21052;-65
2022/03/13 06:45:35;;;;;;;11.57;7.87;;;;;;;-0.26;71.54;101486.70;1664271;86;21075;-64
2022/03/13 06:48:04;;;;;;;9.73;7.40;;;;;;;-0.31;71.32;101483.50;1672069;86;21028;-65
2022/03/13 06:50:31;;;;;;;8.33;7.07;;;;;;;-0.32;71.59;101489.66;1671568;86;21414;-70
2022/03/13 06:53:01;;;;;;;7.87;6.90;;;;;;;-0.29;71.54;101487.70;1671921;84;21075;-65
2022/03/13 06:55:28;;;;;;;9.70;7.67;;;;;;;-0.27;71.70;101486.31;1671823;84;21071;-66
2022/03/13 06:57:56;;;;;;;10.53;8.93;;;;;;;-0.24;71.87;101488.28;1671748;84;21519;-65
2022/03/13 07:00:23;;;;;;;19.77;8.38;;;;;;;-0.18;71.43;101498.05;1672110;84;20980;-65
2022/03/13 07:02:50;;;;;;;9.03;6.83;;;;;;;-0.18;71.25;101500.19;1672025;84;21012;-65
2022/03/13 07:05:24;;;;;;;8.90;7.97;;;;;;;-0.21;70.91;101513.45;1671692;84;21091;-66
2022/03/13 07:07:47;;;;;;;10.33;7.43;;;;;;;-0.26;70.58;101507.19;1672072;84;21072;-68
2022/03/13 07:10:14;;;;;;;11.93;7.87;;;;;;;-0.39;70.54;101497.05;1670844;84;21056;-69
2022/03/13 07:12:44;;;;;;;8.17;7.27;;;;;;;-0.32;70.86;101515.41;1672026;84;21082;-70
2022/03/13 07:15:13;;;;;;;9.67;7.60;;;;;;;-0.35;70.73;101531.30;1672119;84;21119;-66
2022/03/13 07:17:42;;;;;;;7.10;6.10;;;;;;;-0.39;70.75;101532.41;1672106;84;22168;-67
2022/03/13 07:20:09;;;;;;;10.67;7.33;;;;;;;-0.46;70.99;101532.38;1672017;86;21353;-70
2022/03/13 07:22:37;;;;;;;9.40;6.43;;;;;;;-0.45;71.14;101520.98;1670512;84;21513;-65
2022/03/13 07:25:06;;;;;;;11.10;7.63;;;;;;;-0.42;71.53;101523.41;1671726;84;21166;-65
2022/03/13 07:27:33;;;;;;;11.30;6.57;;;;;;;-0.41;71.48;101527.73;1671969;84;21124;-65
2022/03/13 07:30:00;;;;;;;9.27;7.03;;;;;;;-0.38;71.46;101527.53;1672057;84;21102;-65
2022/03/13 07:32:26;;;;;;;10.13;7.00;;;;;;;-0.37;71.21;101531.86;1671243;84;21008;-67
2022/03/13 07:34:55;;;;;;;10.00;6.90;;;;;;;-0.35;71.04;101540.95;1671984;84;21111;-65
2022/03/13 07:37:22;;;;;;;9.17;6.50;;;;;;;-0.35;71.19;101533.92;1672122;84;21095;-68
2022/03/13 07:39:48;;;;;;;;;;;;;;;-0.28;71.26;101539.66;1674687;84;21104;-64
2022/03/13 07:42:16;;;;;;;8.20;7.17;;;;;;;-0.23;71.25;101538.47;1671811;84;20102;-66
2022/03/13 07:44:43;;;;;;;8.77;7.00;;;;;;;-0.18;71.30;101541.28;1672014;84;21038;-65
2022/03/13 07:47:11;;;;;;;7.80;6.73;;;;;;;-0.13;71.29;101547.08;1671821;86;22164;-69
2022/03/13 07:49:38;;;;;;;10.73;7.33;;;;;;;-0.10;71.01;101543.81;1671744;86;21115;-64
2022/03/13 07:52:07;;;;;;;7.03;6.20;;;;;;;-0.15;71.16;101544.57;1671725;86;21043;-65
2022/03/13 07:54:34;;;;;;;9.57;8.00;;;;;;;-0.17;71.04;101547.75;1671751;86;21564;-67
2022/03/13 07:57:02;;;;;;;11.50;7.70;;;;;;;-0.23;71.39;101543.70;1671876;84;21050;-70
2022/03/13 07:59:29;;;;;;;9.30;6.50;;;;;;;-0.20;71.59;101551.84;1672076;86;21078;-65
2022/03/13 08:01:56;;;;;;;11.12;8.20;;;;;;;-0.27;71.86;101547.41;1672188;84;21162;-70
2022/03/13 08:04:24;;;;;;;7.00;5.60;;;;;;;-0.26;71.87;101550.90;1671744;86;21104;-70
2022/03/13 08:06:53;;;;;;;10.90;7.73;;;;;;;-0.26;72.45;101552.21;1672158;84;21226;-65
2022/03/13 08:09:19;;;;;;;;;;;;;;;-0.22;72.51;101559.79;1674578;84;21197;-65
2022/03/13 08:11:46;;;;;;;9.73;7.20;;;;;;;-0.21;72.15;101560.62;1671879;84;20122;-64
2022/03/13 08:14:15;;;;;;;9.13;7.30;;;;;;;-0.21;72.44;101571.11;1671932;86;21127;-66
2022/03/13 08:16:41;;;;;;;9.13;7.35;;;;;;;-0.20;71.95;101565.78;1672191;84;21807;-73
2022/03/13 08:19:09;;;;;;;12.43;7.40;;;;;;;-0.17;71.76;101571.34;1659098;84;21586;-68
2022/03/13 08:21:38;;;;;;;9.17;6.93;;;;;;;-0.15;71.89;101562.05;1664780;86;21150;-68
2022/03/13 08:24:07;;;;;;;8.80;6.57;;;;;;;-0.07;71.48;101572.95;1637314;85;21115;-65
2022/03/13 08:26:38;;;;;;;12.97;7.87;;;;;;;-0.07;71.37;101573.78;1650566;87;21065;-66
2022/03/13 08:29:06;;;;;;;10.60;6.33;;;;;;;-0.02;71.22;101578.75;1650566;87;21139;-66
2022/03/13 08:31:35;;;;;;;10.17;7.43;;;;;;;-0.01;71.24;101575.20;1649531;87;21675;-69
2022/03/13 08:34:07;;;;;;;11.33;7.40;;;;;;;0.04;71.27;101570.99;1664940;85;21075;-66
2022/03/13 08:36:35;;;;;;;8.57;7.07;;;;;;;0.07;71.12;101579.52;1684422;85;21344;-71
2022/03/13 08:39:03;;;;;;;8.77;7.47;;;;;;;0.05;70.87;101565.66;1685685;84;21504;-67
2022/03/13 08:41:30;;;;;;;7.70;6.27;;;;;;;0.15;70.58;101577.77;1685896;84;21047;-66
2022/03/13 08:43:57;;;;;;;9.87;7.53;;;;;;;0.17;70.47;101582.45;1686168;84;21352;-69
2022/03/13 08:46:24;;;;;;;13.68;9.15;;;;;;;0.18;70.74;101595.95;1686269;84;22013;-66
2022/03/13 08:48:52;;;;;;;10.23;7.63;;;;;;;0.18;70.42;101598.09;1686011;84;20992;-65
2022/03/13 08:51:23;;;;;;;9.50;8.00;;;;;;;0.23;70.14;101599.59;1685824;84;21038;-64
2022/03/13 08:53:52;;;;;;;9.33;8.13;;;;;;;0.16;69.11;101601.75;1685879;84;21134;-68
2022/03/13 08:56:20;;;;;;;8.17;6.77;;;;;;;0.10;69.26;101596.40;1686020;84;21004;-65
2022/03/13 08:58:50;;;;;;;10.68;8.90;;;;;;;0.07;69.58;101601.81;1686222;85;21081;-65
2022/03/13 09:01:17;;;;;;;10.37;7.87;;;;;;;0.09;69.74;101603.88;1685860;84;21106;-66
2022/03/13 09:03:44;;;;;;;11.10;7.67;;;;;;;0.11;69.36;101605.94;1686044;85;21150;-65
2022/03/13 09:06:13;;;;;;;10.70;7.83;;;;;;;0.11;69.17;101612.48;1686111;85;21142;-64
2022/03/13 09:08:40;;;;;;;12.83;7.97;;;;;;;0.15;69.21;101607.47;1686148;85;21043;-65
2022/03/13 09:11:09;;;;;;;9.17;7.90;;;;;;;0.21;69.37;101618.52;1685815;84;21051;-65
2022/03/13 09:13:37;;;;;;;10.80;7.60;;;;;;;0.27;69.22;101612.93;1666554;85;21582;-65
2022/03/13 09:16:04;;;;;;;;;;;;;;;0.34;69.10;101609.85;1688441;84;21518;-65
2022/03/13 09:18:31;;;;;;;8.93;6.70;;;;;;;0.43;68.80;101614.17;1685999;84;20133;-65
2022/03/13 09:21:00;;;;;;;11.57;8.00;;;;;;;0.47;68.37;101609.97;1685746;85;21523;-64
2022/03/13 09:23:27;;;;;;;9.47;7.70;;;;;;;0.47;68.42;101616.53;1666421;84;21087;-65
2022/03/13 09:25:55;;;;;;;8.13;6.73;;;;;;;0.55;68.66;101618.70;1686026;84;21075;-66
2022/03/13 09:28:23;;;;;;;7.17;6.37;;;;;;;0.60;68.13;101621.86;1686213;85;21625;-66
2022/03/13 09:30:50;;;;;;;8.97;6.90;;;;;;;0.66;67.81;101612.78;1685870;85;21078;-64
2022/03/13 09:33:16;;;;;;;9.33;7.72;;;;;;;0.65;67.37;101614.56;1675669;84;21081;-72
2022/03/13 09:35:43;;;;;;;8.58;6.55;;;;;;;0.64;67.51;101616.83;1677236;85;21550;-65
2022/03/13 09:38:09;;;;;;;;;;;;;;;0.63;66.90;101625.63;1687475;85;21024;-65
2022/03/13 09:40:36;;;;;;;10.93;6.17;;;;;;;0.64;66.47;101621.22;1686081;85;20540;-68
2022/03/13 09:43:05;;;;;;;10.37;7.63;;;;;;;0.56;66.82;101624.30;1685745;85;21036;-64
2022/03/13 09:45:33;;;;;;;9.33;6.90;;;;;;;0.63;66.19;101630.88;1684744;84;21146;-66
2022/03/13 09:48:03;;;;;;;10.03;7.60;;;;;;;0.65;66.06;101630.31;1685461;85;21027;-66
2022/03/13 09:50:30;;;;;;;11.63;7.47;;;;;;;0.70;66.03;101636.14;1686227;84;21055;-66
2022/03/13 09:52:57;;;;;;;9.53;6.97;;;;;;;0.66;66.24;101641.20;1686093;85;21117;-65
2022/03/13 09:55:23;;;;;;;8.60;6.92;;;;;;;0.18;66.11;101565.31;1685843;84;21150;-65
2022/03/13 09:57:52;;;;;;;;;;;;;;;0.56;66.39;101644.81;1688246;84;21079;-65
2022/03/13 10:00:26;;;;;;;9.10;5.37;;;;;;;0.58;66.45;101637.73;1685023;84;20110;-68
2022/03/13 10:02:53;;;;;;;7.80;6.40;;;;;;;0.59;66.45;101639.87;1669264;85;21078;-65
2022/03/13 10:05:20;;;;;;;8.10;6.23;;;;;;;0.65;66.17;101641.28;1685527;84;21562;-71
2022/03/13 10:07:55;;;;;;;7.57;6.03;;;;;;;0.60;66.05;101630.21;1685918;85;21146;-65
2022/03/13 10:10:25;;;;;;;8.30;7.30;;;;;;;0.65;66.08;101646.05;1685539;85;21953;-74
2022/03/13 10:12:55;;;;;;;8.27;6.73;;;;;;;0.62;66.06;101642.30;1685681;84;21070;-66
2022/03/13 10:15:22;;;;;;;7.93;6.43;;;;;;;0.64;65.71;101643.08;1686267;85;21654;-70
2022/03/13 10:17:49;;;;;;;6.47;4.77;;;;;;;0.61;65.66;101640.63;1685896;84;21593;-69
2022/03/13 10:20:26;;;;;;;7.40;5.53;;;;;;;0.65;65.57;101646.53;1666785;84;21019;-65
2022/03/13 10:23:05;;;;;;;5.70;4.80;;;;;;;0.70;65.34;101654.98;1669430;84;21094;-65
2022/03/13 10:25:39;;;;;;;6.67;5.43;;;;;;;0.81;64.95;101645.12;1685851;85;21122;-65
2022/03/13 10:28:28;;;;;;;8.70;5.40;;;;;;;0.85;64.17;101652.74;1685762;85;21086;-66
2022/03/13 10:31:05;;;;;;;5.73;4.83;;;;;;;0.86;64.05;101658.35;1655761;85;21043;-65
2022/03/13 10:33:47;;;;;;;6.40;5.78;;;;;;;0.81;63.46;101656.94;1685490;84;21150;-66
2022/03/13 10:36:21;;;;;;;9.17;5.80;;;;;;;0.82;63.30;101661.27;1670206;85;21138;-63
2022/03/13 10:38:50;;;;;;;8.20;6.67;;;;;;;0.77;63.47;101670.71;1685838;85;21153;-66
2022/03/13 10:41:19;;;;;;;6.17;5.57;;;;;;;0.74;63.59;101666.98;1686195;84;21075;-65
2022/03/13 10:43:55;;;;;;;7.57;5.53;;;;;;;0.74;63.62;101664.36;1685669;84;21059;-69
2022/03/13 10:46:34;;;;;;;7.90;6.63;;;;;;;0.76;63.60;101672.98;1686049;84;21106;-66
2022/03/13 10:49:03;;;;;;;6.20;5.57;;;;;;;0.77;63.45;101668.95;1685869;84;21419;-71
2022/03/13 10:51:45;;;;;;;8.43;6.90;;;;;;;0.77;63.60;101669.41;1704634;84;21086;-68
2022/03/13 10:54:37;;;;;;;9.57;5.93;;;;;;;0.83;63.62;101668.19;1686053;84;21098;-66
2022/03/13 10:57:12;;;;;;;8.87;5.90;;;;;;;0.86;63.66;101667.54;1685896;84;21015;-67
2022/03/13 10:59:42;;;;;;;7.93;5.60;;;;;;;0.91;63.23;101670.73;1686342;85;21015;-64
2022/03/13 11:02:22;;;;;;;6.53;5.67;;;;;;;0.95;63.07;101674.86;1685927;84;21621;-65
2022/03/13 11:07:35;;;;;;;7.00;5.77;;;;;;;0.93;62.45;101674.11;1818628;79;22956;-66
2022/03/13 11:10:03;;;;;;;;;;;;;;;0.87;62.64;101674.97;1794489;80;21073;-70
2022/03/13 11:12:32;;;;;;;12.83;6.30;;;;;;;0.86;62.76;101675.89;1728588;80;20158;-66
2022/03/13 11:15:02;;;;;;;6.20;4.87;;;;;;;0.79;63.01;101671.46;1725656;82;21101;-66
2022/03/13 11:17:33;;;;;;;6.10;5.50;;;;;;;0.77;62.20;101682.52;1731514;83;20992;-65
2022/03/13 11:20:03;;;;;;;5.40;4.77;;;;;;;0.75;62.05;101687.02;1728927;82;21061;-65
2022/03/13 11:22:31;;;;;;;6.87;5.53;;;;;;;0.73;61.98;101696.30;1699429;84;21086;-66
2022/03/13 11:25:07;;;;;;;10.33;5.97;;;;;;;0.72;61.70;101681.50;1666239;85;21082;-65
2022/03/13 11:27:40;;;;;;;7.63;6.77;;;;;;;0.71;61.87;101679.80;1683807;84;21013;-68
2022/03/13 11:30:10;;;;;;;7.43;5.03;;;;;;;0.74;62.14;101681.41;1683417;84;21100;-70
2022/03/13 11:32:47;;;;;;;5.57;5.07;;;;;;;0.80;62.05;101674.48;1674907;85;21620;-65
2022/03/13 11:35:18;;;;;;;;;;;;;;;0.75;61.08;101683.09;1702732;82;21608;-66